Nashville International Airport Nashville US
ICAO: KBNA
IATA: BNA
Category: Large
Scheduled Services: Yes

Elevation: 599 ft
TransAlt. 18000 ft.

Airport Communications:
APP:120.6
ATIS:135.1
CLNC DEL:126.05
DEP:118.4
GND:121.9
ANG MAINT:138.1
ANG OPS:32.29
RDO:122.2
TWR:118.6
UNICOM:122.95

KBNA Zoom In..

If Map Doesn't Load, Click Here

Runways:

(A) RW 02C length 8001 ft width 150 ft
ILS 110.75 / hdg 21

(B) RW 02L length 7703 ft width 150 ft
ILS 109.90 / hdg 21

(C) RW 02R length 8000 ft width 150 ft
ILS 111.75 / hdg 21

(D) RW 13 length 11030 ft width 150 ft
---- / hdg 136

(E) RW 20C length 8001 ft width 150 ft
---- / hdg 201

(F) RW 20L length 8000 ft width 150 ft
ILS 109.35 / hdg 201

(G) RW 20R length 7703 ft width 150 ft
ILS 111.30 / hdg 201

(H) RW 31 length 11030 ft width 150 ft
ILS 111.95 / hdg 316

Location; KBNA
Day. 24 / Time. 05.53 Zulu
* Altimeter: 30.03
* Temperature: 22° c. 71.6°f.
* Wind from: 130° Speed 06 kn.
Dewpoint: 21° c.
Visibility: 10 Statute Miles.
Clouds: Scattered 12000 ft.
Clouds: Overcast 15000 ft.
Conditions: Light Rain.

KBNA 240553Z 13006KT 10SM -RA SCT120 OVC150 22/21 A3003 RMK AO2 RAE03B27 SLP163 P0001 60025 T02220206 10228 20222 402390206 58008


Wind From 130°
Speed 06 kn.

 
 
jpsmedia.com for Web Design worldairports.se 2018   terms of use